sensor_id;sensor_type;location;lat;lon;timestamp;temperature;humidity
21001;DHT22;10658;50.920;12.238;2023-01-31T00:01:33;3.10;99.90
21001;DHT22;10658;50.920;12.238;2023-01-31T00:05:34;3.00;99.90
21001;DHT22;10658;50.920;12.238;2023-01-31T00:09:37;2.90;99.90
21001;DHT22;10658;50.920;12.238;2023-01-31T00:13:38;2.90;99.90
21001;DHT22;10658;50.920;12.238;2023-01-31T00:17:39;2.80;99.90
21001;DHT22;10658;50.920;12.238;2023-01-31T00:21:41;2.80;99.90
21001;DHT22;10658;50.920;12.238;2023-01-31T00:25:43;2.80;99.90
21001;DHT22;10658;50.920;12.238;2023-01-31T00:29:45;2.80;99.90
21001;DHT22;10658;50.920;12.238;2023-01-31T00:33:47;2.90;99.90
21001;DHT22;10658;50.920;12.238;2023-01-31T00:37:49;3.00;99.90
21001;DHT22;10658;50.920;12.238;2023-01-31T05:31:51;2.60;99.90
21001;DHT22;10658;50.920;12.238;2023-01-31T05:35:55;2.70;99.90
21001;DHT22;10658;50.920;12.238;2023-01-31T05:39:56;2.70;99.90
21001;DHT22;10658;50.920;12.238;2023-01-31T05:43:57;2.70;99.90
21001;DHT22;10658;50.920;12.238;2023-01-31T05:48:04;2.70;99.90
21001;DHT22;10658;50.920;12.238;2023-01-31T05:52:08;2.80;99.90
21001;DHT22;10658;50.920;12.238;2023-01-31T05:56:10;2.70;99.90
21001;DHT22;10658;50.920;12.238;2023-01-31T06:00:11;2.70;99.90
21001;DHT22;10658;50.920;12.238;2023-01-31T06:04:14;2.80;99.90
21001;DHT22;10658;50.920;12.238;2023-01-31T06:08:16;2.90;99.90
21001;DHT22;10658;50.920;12.238;2023-01-31T06:12:18;3.00;99.90
21001;DHT22;10658;50.920;12.238;2023-01-31T06:16:19;3.00;99.90
21001;DHT22;10658;50.920;12.238;2023-01-31T06:20:21;3.00;99.90
21001;DHT22;10658;50.920;12.238;2023-01-31T06:24:23;3.10;99.90
21001;DHT22;10658;50.920;12.238;2023-01-31T06:28:25;3.10;99.90
21001;DHT22;10658;50.920;12.238;2023-01-31T06:32:28;3.20;99.90
21001;DHT22;10658;50.920;12.238;2023-01-31T06:36:32;3.20;99.90
21001;DHT22;10658;50.920;12.238;2023-01-31T06:40:34;3.20;99.90
21001;DHT22;10658;50.920;12.238;2023-01-31T06:44:39;3.20;99.90
21001;DHT22;10658;50.920;12.238;2023-01-31T06:48:43;3.20;99.90
21001;DHT22;10658;50.920;12.238;2023-01-31T06:52:45;3.20;99.90
21001;DHT22;10658;50.920;12.238;2023-01-31T06:56:46;3.20;99.90
21001;DHT22;10658;50.920;12.238;2023-01-31T07:00:49;3.20;99.90
21001;DHT22;10658;50.920;12.238;2023-01-31T07:04:51;3.20;99.90
21001;DHT22;10658;50.920;12.238;2023-01-31T07:08:53;3.20;99.90
21001;DHT22;10658;50.920;12.238;2023-01-31T07:12:55;3.20;99.90
21001;DHT22;10658;50.920;12.238;2023-01-31T07:16:56;3.20;99.90
21001;DHT22;10658;50.920;12.238;2023-01-31T07:20:57;3.20;99.90
21001;DHT22;10658;50.920;12.238;2023-01-31T07:25:00;3.20;99.90
21001;DHT22;10658;50.920;12.238;2023-01-31T07:29:02;3.20;99.90
21001;DHT22;10658;50.920;12.238;2023-01-31T07:33:04;3.20;99.90
21001;DHT22;10658;50.920;12.238;2023-01-31T07:37:11;3.10;99.90
21001;DHT22;10658;50.920;12.238;2023-01-31T07:41:12;3.10;99.90
21001;DHT22;10658;50.920;12.238;2023-01-31T07:45:23;3.10;99.90
21001;DHT22;10658;50.920;12.238;2023-01-31T07:49:24;3.10;99.90
21001;DHT22;10658;50.920;12.238;2023-01-31T07:53:28;3.20;99.90
21001;DHT22;10658;50.920;12.238;2023-01-31T07:57:35;3.30;99.90
21001;DHT22;10658;50.920;12.238;2023-01-31T08:01:36;3.20;99.90
21001;DHT22;10658;50.920;12.238;2023-01-31T08:06:07;3.20;99.90
21001;DHT22;10658;50.920;12.238;2023-01-31T08:10:09;3.20;99.90
21001;DHT22;10658;50.920;12.238;2023-01-31T08:14:11;3.30;99.90
21001;DHT22;10658;50.920;12.238;2023-01-31T08:18:12;3.40;99.90
21001;DHT22;10658;50.920;12.238;2023-01-31T08:22:13;3.40;99.90
21001;DHT22;10658;50.920;12.238;2023-01-31T08:26:17;3.50;99.90
21001;DHT22;10658;50.920;12.238;2023-01-31T08:30:19;3.50;99.90
21001;DHT22;10658;50.920;12.238;2023-01-31T08:34:20;3.60;99.90
21001;DHT22;10658;50.920;12.238;2023-01-31T08:38:27;3.60;99.90
21001;DHT22;10658;50.920;12.238;2023-01-31T08:42:28;3.60;99.90
21001;DHT22;10658;50.920;12.238;2023-01-31T08:46:31;3.70;99.90
21001;DHT22;10658;50.920;12.238;2023-01-31T08:50:34;3.70;99.90
21001;DHT22;10658;50.920;12.238;2023-01-31T08:54:38;3.80;99.90
21001;DHT22;10658;50.920;12.238;2023-01-31T08:58:43;3.80;99.90
21001;DHT22;10658;50.920;12.238;2023-01-31T09:02:57;3.80;99.90
21001;DHT22;10658;50.920;12.238;2023-01-31T09:07:03;3.90;99.90
21001;DHT22;10658;50.920;12.238;2023-01-31T09:11:05;3.90;99.90
21001;DHT22;10658;50.920;12.238;2023-01-31T09:15:09;3.90;99.90
21001;DHT22;10658;50.920;12.238;2023-01-31T09:19:13;4.00;99.90
21001;DHT22;10658;50.920;12.238;2023-01-31T09:23:14;4.00;99.90
21001;DHT22;10658;50.920;12.238;2023-01-31T09:27:16;4.10;99.90
21001;DHT22;10658;50.920;12.238;2023-01-31T09:31:20;4.10;99.90
21001;DHT22;10658;50.920;12.238;2023-01-31T09:35:23;4.20;99.90
21001;DHT22;10658;50.920;12.238;2023-01-31T09:50:31;4.30;99.90
21001;DHT22;10658;50.920;12.238;2023-01-31T09:54:40;4.20;99.90
21001;DHT22;10658;50.920;12.238;2023-01-31T09:59:17;4.30;99.90
21001;DHT22;10658;50.920;12.238;2023-01-31T10:03:54;4.20;99.90
21001;DHT22;10658;50.920;12.238;2023-01-31T10:12:59;4.40;99.90
21001;DHT22;10658;50.920;12.238;2023-01-31T10:21:41;4.70;99.90
21001;DHT22;10658;50.920;12.238;2023-01-31T10:26:05;4.70;99.90
21001;DHT22;10658;50.920;12.238;2023-01-31T10:30:20;4.70;99.90
21001;DHT22;10658;50.920;12.238;2023-01-31T10:38:52;4.60;99.90
21001;DHT22;10658;50.920;12.238;2023-01-31T10:57:51;4.60;99.90
21001;DHT22;10658;50.920;12.238;2023-01-31T11:01:52;4.60;99.90
21001;DHT22;10658;50.920;12.238;2023-01-31T11:05:56;4.60;99.90
21001;DHT22;10658;50.920;12.238;2023-01-31T11:09:59;4.50;99.90
21001;DHT22;10658;50.920;12.238;2023-01-31T11:14:06;4.50;99.90
21001;DHT22;10658;50.920;12.238;2023-01-31T11:18:30;4.50;99.90
21001;DHT22;10658;50.920;12.238;2023-01-31T11:22:34;4.50;99.90
21001;DHT22;10658;50.920;12.238;2023-01-31T11:26:38;4.50;99.90
21001;DHT22;10658;50.920;12.238;2023-01-31T11:30:47;4.60;99.90
21001;DHT22;10658;50.920;12.238;2023-01-31T11:43:34;4.50;99.90
21001;DHT22;10658;50.920;12.238;2023-01-31T11:47:41;4.50;99.90
21001;DHT22;10658;50.920;12.238;2023-01-31T11:51:43;4.50;99.90
21001;DHT22;10658;50.920;12.238;2023-01-31T11:55:45;4.50;99.90
21001;DHT22;10658;50.920;12.238;2023-01-31T11:59:51;4.50;99.90
21001;DHT22;10658;50.920;12.238;2023-01-31T12:04:25;4.50;99.90
21001;DHT22;10658;50.920;12.238;2023-01-31T12:08:38;4.60;99.90
21001;DHT22;10658;50.920;12.238;2023-01-31T12:12:51;4.60;99.90
21001;DHT22;10658;50.920;12.238;2023-01-31T12:17:23;4.50;99.90
21001;DHT22;10658;50.920;12.238;2023-01-31T12:44:44;4.10;99.90
21001;DHT22;10658;50.920;12.238;2023-01-31T12:58:40;4.20;99.90
21001;DHT22;10658;50.920;12.238;2023-01-31T13:08:18;4.40;99.90
21001;DHT22;10658;50.920;12.238;2023-01-31T13:23:45;4.50;99.90
21001;DHT22;10658;50.920;12.238;2023-01-31T13:28:22;4.50;99.90
21001;DHT22;10658;50.920;12.238;2023-01-31T13:42:16;4.50;99.90
21001;DHT22;10658;50.920;12.238;2023-01-31T13:56:41;4.40;99.90
21001;DHT22;10658;50.920;12.238;2023-01-31T14:06:11;4.40;99.90
21001;DHT22;10658;50.920;12.238;2023-01-31T14:10:35;4.40;99.90
21001;DHT22;10658;50.920;12.238;2023-01-31T14:23:55;4.40;99.90
21001;DHT22;10658;50.920;12.238;2023-01-31T14:28:09;4.40;99.90
21001;DHT22;10658;50.920;12.238;2023-01-31T14:37:54;4.40;99.90
21001;DHT22;10658;50.920;12.238;2023-01-31T14:51:30;4.30;99.90
21001;DHT22;10658;50.920;12.238;2023-01-31T15:04:28;4.30;99.90
21001;DHT22;10658;50.920;12.238;2023-01-31T15:08:45;4.30;99.90
21001;DHT22;10658;50.920;12.238;2023-01-31T15:23:27;4.20;99.90
21001;DHT22;10658;50.920;12.238;2023-01-31T15:27:42;4.10;99.90
21001;DHT22;10658;50.920;12.238;2023-01-31T15:31:51;4.10;99.90
21001;DHT22;10658;50.920;12.238;2023-01-31T15:40:37;4.10;99.90
21001;DHT22;10658;50.920;12.238;2023-01-31T15:49:29;4.10;99.90
21001;DHT22;10658;50.920;12.238;2023-01-31T15:53:44;4.10;99.90
21001;DHT22;10658;50.920;12.238;2023-01-31T15:58:03;4.10;99.90
21001;DHT22;10658;50.920;12.238;2023-01-31T16:02:35;4.10;99.90
21001;DHT22;10658;50.920;12.238;2023-01-31T16:07:05;4.20;99.90
21001;DHT22;10658;50.920;12.238;2023-01-31T16:11:11;4.20;99.90
21001;DHT22;10658;50.920;12.238;2023-01-31T16:15:26;4.00;99.90
21001;DHT22;10658;50.920;12.238;2023-01-31T16:19:31;4.10;99.90
21001;DHT22;10658;50.920;12.238;2023-01-31T16:23:40;4.00;99.90
21001;DHT22;10658;50.920;12.238;2023-01-31T16:27:52;4.10;99.90
21001;DHT22;10658;50.920;12.238;2023-01-31T16:31:59;4.00;99.90
21001;DHT22;10658;50.920;12.238;2023-01-31T16:36:15;4.00;99.90
21001;DHT22;10658;50.920;12.238;2023-01-31T16:40:27;4.10;99.90
21001;DHT22;10658;50.920;12.238;2023-01-31T16:44:44;4.00;99.90
21001;DHT22;10658;50.920;12.238;2023-01-31T16:49:20;4.10;99.90
21001;DHT22;10658;50.920;12.238;2023-01-31T16:53:35;4.10;99.90
21001;DHT22;10658;50.920;12.238;2023-01-31T16:57:49;4.20;99.90
21001;DHT22;10658;50.920;12.238;2023-01-31T17:02:00;4.30;99.90
21001;DHT22;10658;50.920;12.238;2023-01-31T17:06:07;4.30;99.90
21001;DHT22;10658;50.920;12.238;2023-01-31T17:10:08;4.40;99.90
21001;DHT22;10658;50.920;12.238;2023-01-31T17:14:17;4.40;99.90
21001;DHT22;10658;50.920;12.238;2023-01-31T17:18:25;4.50;99.90
21001;DHT22;10658;50.920;12.238;2023-01-31T17:22:29;4.50;99.90
21001;DHT22;10658;50.920;12.238;2023-01-31T17:26:31;4.50;99.90
21001;DHT22;10658;50.920;12.238;2023-01-31T17:30:37;4.60;99.90
21001;DHT22;10658;50.920;12.238;2023-01-31T17:34:40;4.60;99.90
21001;DHT22;10658;50.920;12.238;2023-01-31T17:38:42;4.60;99.90
21001;DHT22;10658;50.920;12.238;2023-01-31T17:42:45;4.60;99.90
21001;DHT22;10658;50.920;12.238;2023-01-31T17:46:46;4.50;99.90
21001;DHT22;10658;50.920;12.238;2023-01-31T17:50:48;4.50;99.90
21001;DHT22;10658;50.920;12.238;2023-01-31T17:54:49;4.50;99.90
21001;DHT22;10658;50.920;12.238;2023-01-31T17:58:50;4.50;99.90
21001;DHT22;10658;50.920;12.238;2023-01-31T18:02:51;4.50;99.90
21001;DHT22;10658;50.920;12.238;2023-01-31T18:06:53;4.50;99.90
21001;DHT22;10658;50.920;12.238;2023-01-31T18:11:02;4.50;99.90
21001;DHT22;10658;50.920;12.238;2023-01-31T18:15:06;4.50;99.90
21001;DHT22;10658;50.920;12.238;2023-01-31T18:19:08;4.50;99.90
21001;DHT22;10658;50.920;12.238;2023-01-31T18:23:12;4.60;99.90
21001;DHT22;10658;50.920;12.238;2023-01-31T18:27:13;4.60;99.90
21001;DHT22;10658;50.920;12.238;2023-01-31T18:31:16;4.50;99.90
21001;DHT22;10658;50.920;12.238;2023-01-31T18:35:18;4.60;99.90
21001;DHT22;10658;50.920;12.238;2023-01-31T18:39:22;4.60;99.90
21001;DHT22;10658;50.920;12.238;2023-01-31T18:43:25;4.60;99.90
21001;DHT22;10658;50.920;12.238;2023-01-31T18:47:26;4.70;99.90
21001;DHT22;10658;50.920;12.238;2023-01-31T18:51:28;4.70;99.90
21001;DHT22;10658;50.920;12.238;2023-01-31T18:55:29;4.80;99.90
21001;DHT22;10658;50.920;12.238;2023-01-31T18:59:34;4.80;99.90
21001;DHT22;10658;50.920;12.238;2023-01-31T19:03:36;4.80;99.90
21001;DHT22;10658;50.920;12.238;2023-01-31T19:07:38;4.70;99.90
21001;DHT22;10658;50.920;12.238;2023-01-31T19:11:40;4.80;99.90
21001;DHT22;10658;50.920;12.238;2023-01-31T19:15:42;4.80;99.90
21001;DHT22;10658;50.920;12.238;2023-01-31T19:19:43;4.80;99.90
21001;DHT22;10658;50.920;12.238;2023-01-31T19:23:47;4.80;99.90
21001;DHT22;10658;50.920;12.238;2023-01-31T19:27:49;4.80;99.90
21001;DHT22;10658;50.920;12.238;2023-01-31T19:31:52;4.80;99.90
21001;DHT22;10658;50.920;12.238;2023-01-31T19:35:54;4.80;99.90
21001;DHT22;10658;50.920;12.238;2023-01-31T19:39:56;4.80;99.90
21001;DHT22;10658;50.920;12.238;2023-01-31T19:43:59;4.80;99.90
21001;DHT22;10658;50.920;12.238;2023-01-31T19:48:03;4.80;99.90
21001;DHT22;10658;50.920;12.238;2023-01-31T19:52:05;4.90;99.90
21001;DHT22;10658;50.920;12.238;2023-01-31T19:56:08;4.90;99.90
21001;DHT22;10658;50.920;12.238;2023-01-31T20:00:10;4.90;99.90
21001;DHT22;10658;50.920;12.238;2023-01-31T20:04:13;4.90;99.90
21001;DHT22;10658;50.920;12.238;2023-01-31T20:08:15;4.90;99.90
21001;DHT22;10658;50.920;12.238;2023-01-31T20:12:19;4.90;99.90
21001;DHT22;10658;50.920;12.238;2023-01-31T20:16:22;5.00;99.90
21001;DHT22;10658;50.920;12.238;2023-01-31T20:20:23;5.20;99.90
21001;DHT22;10658;50.920;12.238;2023-01-31T20:24:26;5.20;99.90
21001;DHT22;10658;50.920;12.238;2023-01-31T20:28:28;5.20;99.90
21001;DHT22;10658;50.920;12.238;2023-01-31T20:32:30;5.20;99.90
21001;DHT22;10658;50.920;12.238;2023-01-31T20:36:33;5.20;99.90
21001;DHT22;10658;50.920;12.238;2023-01-31T20:40:34;5.30;99.90
21001;DHT22;10658;50.920;12.238;2023-01-31T20:44:37;5.30;99.90
21001;DHT22;10658;50.920;12.238;2023-01-31T20:48:41;5.30;99.90
21001;DHT22;10658;50.920;12.238;2023-01-31T20:52:43;5.20;99.90
21001;DHT22;10658;50.920;12.238;2023-01-31T20:56:44;5.30;99.90
21001;DHT22;10658;50.920;12.238;2023-01-31T21:00:50;5.30;99.90
21001;DHT22;10658;50.920;12.238;2023-01-31T21:04:54;5.30;99.90
21001;DHT22;10658;50.920;12.238;2023-01-31T21:08:56;5.30;99.90
21001;DHT22;10658;50.920;12.238;2023-01-31T21:13:03;5.40;99.90
21001;DHT22;10658;50.920;12.238;2023-01-31T21:17:05;5.40;99.90
21001;DHT22;10658;50.920;12.238;2023-01-31T21:21:08;5.40;99.90
21001;DHT22;10658;50.920;12.238;2023-01-31T21:25:10;5.50;99.90
21001;DHT22;10658;50.920;12.238;2023-01-31T21:29:13;5.50;99.90
21001;DHT22;10658;50.920;12.238;2023-01-31T21:33:15;5.40;99.90
21001;DHT22;10658;50.920;12.238;2023-01-31T21:37:18;5.30;99.90
21001;DHT22;10658;50.920;12.238;2023-01-31T21:41:20;5.20;99.90
21001;DHT22;10658;50.920;12.238;2023-01-31T21:45:42;5.10;99.90
21001;DHT22;10658;50.920;12.238;2023-01-31T21:49:45;5.00;99.90
21001;DHT22;10658;50.920;12.238;2023-01-31T21:53:46;5.00;99.90
21001;DHT22;10658;50.920;12.238;2023-01-31T21:57:47;5.10;99.90
21001;DHT22;10658;50.920;12.238;2023-01-31T22:01:50;5.10;99.90
21001;DHT22;10658;50.920;12.238;2023-01-31T22:05:52;5.10;99.90
21001;DHT22;10658;50.920;12.238;2023-01-31T22:09:53;5.10;99.90
21001;DHT22;10658;50.920;12.238;2023-01-31T22:13:55;5.00;99.90
21001;DHT22;10658;50.920;12.238;2023-01-31T22:17:57;4.90;99.90
21001;DHT22;10658;50.920;12.238;2023-01-31T22:21:58;4.80;99.90
21001;DHT22;10658;50.920;12.238;2023-01-31T22:26:11;4.80;99.90
21001;DHT22;10658;50.920;12.238;2023-01-31T22:30:13;4.90;99.90
21001;DHT22;10658;50.920;12.238;2023-01-31T22:34:16;4.90;99.90
21001;DHT22;10658;50.920;12.238;2023-01-31T22:38:17;4.80;99.90
21001;DHT22;10658;50.920;12.238;2023-01-31T22:42:19;4.80;99.90
21001;DHT22;10658;50.920;12.238;2023-01-31T22:46:26;4.70;99.90
21001;DHT22;10658;50.920;12.238;2023-01-31T22:50:27;4.60;99.90
21001;DHT22;10658;50.920;12.238;2023-01-31T22:54:30;4.60;99.90
21001;DHT22;10658;50.920;12.238;2023-01-31T22:58:33;4.50;99.90
21001;DHT22;10658;50.920;12.238;2023-01-31T23:02:34;4.50;99.90
21001;DHT22;10658;50.920;12.238;2023-01-31T23:06:36;4.50;99.90
21001;DHT22;10658;50.920;12.238;2023-01-31T23:10:39;4.50;99.90
21001;DHT22;10658;50.920;12.238;2023-01-31T23:14:44;4.60;99.90
21001;DHT22;10658;50.920;12.238;2023-01-31T23:18:49;4.70;99.90
21001;DHT22;10658;50.920;12.238;2023-01-31T23:22:56;4.70;99.90
21001;DHT22;10658;50.920;12.238;2023-01-31T23:26:58;4.70;99.90
21001;DHT22;10658;50.920;12.238;2023-01-31T23:31:00;4.80;99.90
21001;DHT22;10658;50.920;12.238;2023-01-31T23:35:02;4.80;99.90
21001;DHT22;10658;50.920;12.238;2023-01-31T23:39:05;4.80;99.90
21001;DHT22;10658;50.920;12.238;2023-01-31T23:43:07;4.80;99.90
21001;DHT22;10658;50.920;12.238;2023-01-31T23:47:09;4.80;99.90
21001;DHT22;10658;50.920;12.238;2023-01-31T23:51:11;4.80;99.90
21001;DHT22;10658;50.920;12.238;2023-01-31T23:55:12;4.80;99.90
21001;DHT22;10658;50.920;12.238;2023-01-31T23:59:15;4.90;99.90
